sensor_id;sensor_type;location;lat;lon;timestamp;pressure;altitude;pressure_sealevel;temperature;humidity
22755;BME280;11544;42.020;23.094;2022-10-13T00:01:20;97933.03;;;13.57;100.00
22755;BME280;11544;42.020;23.094;2022-10-13T00:03:47;97933.84;;;13.59;100.00
22755;BME280;11544;42.020;23.094;2022-10-13T00:06:20;97932.25;;;13.79;100.00
22755;BME280;11544;42.020;23.094;2022-10-13T00:08:46;97923.47;;;13.80;100.00
22755;BME280;11544;42.020;23.094;2022-10-13T00:11:24;97927.94;;;13.52;100.00
22755;BME280;11544;42.020;23.094;2022-10-13T00:13:54;97937.47;;;13.55;100.00
22755;BME280;11544;42.020;23.094;2022-10-13T00:16:21;97937.09;;;13.66;100.00
22755;BME280;11544;42.020;23.094;2022-10-13T00:18:47;97935.84;;;13.51;100.00
22755;BME280;11544;42.020;23.094;2022-10-13T00:21:16;97933.19;;;13.27;100.00
22755;BME280;11544;42.020;23.094;2022-10-13T00:23:44;97922.66;;;13.54;100.00
22755;BME280;11544;42.020;23.094;2022-10-13T00:26:12;97910.94;;;13.39;100.00
22755;BME280;11544;42.020;23.094;2022-10-13T00:28:39;97913.53;;;13.41;100.00
22755;BME280;11544;42.020;23.094;2022-10-13T00:31:22;97902.88;;;13.70;100.00
22755;BME280;11544;42.020;23.094;2022-10-13T00:33:49;97902.56;;;13.54;100.00
22755;BME280;11544;42.020;23.094;2022-10-13T00:36:16;97904.38;;;13.52;100.00
22755;BME280;11544;42.020;23.094;2022-10-13T00:38:42;97907.41;;;13.42;100.00
22755;BME280;11544;42.020;23.094;2022-10-13T00:41:08;97901.91;;;13.48;100.00
22755;BME280;11544;42.020;23.094;2022-10-13T00:46:20;97881.28;;;13.64;100.00
22755;BME280;11544;42.020;23.094;2022-10-13T00:48:54;97871.00;;;13.81;100.00
22755;BME280;11544;42.020;23.094;2022-10-13T00:51:24;97878.19;;;13.76;100.00
22755;BME280;11544;42.020;23.094;2022-10-13T00:53:55;97878.47;;;13.68;100.00
22755;BME280;11544;42.020;23.094;2022-10-13T00:56:22;97884.56;;;13.69;100.00
22755;BME280;11544;42.020;23.094;2022-10-13T00:58:50;97890.34;;;13.53;100.00
22755;BME280;11544;42.020;23.094;2022-10-13T01:01:17;97899.81;;;13.58;100.00
22755;BME280;11544;42.020;23.094;2022-10-13T01:03:42;97909.78;;;13.48;100.00
22755;BME280;11544;42.020;23.094;2022-10-13T01:06:08;97912.72;;;13.39;100.00
22755;BME280;11544;42.020;23.094;2022-10-13T01:08:35;97899.88;;;13.32;100.00
22755;BME280;11544;42.020;23.094;2022-10-13T01:17:14;97892.47;;;13.44;100.00
22755;BME280;11544;42.020;23.094;2022-10-13T01:30:55;97884.38;;;13.25;100.00
22755;BME280;11544;42.020;23.094;2022-10-13T01:33:42;97885.19;;;13.52;100.00
22755;BME280;11544;42.020;23.094;2022-10-13T01:36:20;97878.44;;;13.20;100.00
22755;BME280;11544;42.020;23.094;2022-10-13T01:39:31;97879.88;;;13.30;100.00
22755;BME280;11544;42.020;23.094;2022-10-13T01:42:05;97871.69;;;13.14;100.00
22755;BME280;11544;42.020;23.094;2022-10-13T01:44:40;97875.25;;;13.11;100.00
22755;BME280;11544;42.020;23.094;2022-10-13T01:47:09;97875.94;;;13.17;100.00
22755;BME280;11544;42.020;23.094;2022-10-13T01:49:37;97882.63;;;13.25;100.00
22755;BME280;11544;42.020;23.094;2022-10-13T01:52:06;97880.63;;;13.33;100.00
22755;BME280;11544;42.020;23.094;2022-10-13T01:54:34;97882.16;;;13.39;100.00
22755;BME280;11544;42.020;23.094;2022-10-13T01:56:59;97894.78;;;13.28;100.00
22755;BME280;11544;42.020;23.094;2022-10-13T01:59:28;97881.72;;;13.26;100.00
22755;BME280;11544;42.020;23.094;2022-10-13T02:02:03;97879.31;;;13.20;100.00
22755;BME280;11544;42.020;23.094;2022-10-13T02:04:40;97878.78;;;13.10;100.00
22755;BME280;11544;42.020;23.094;2022-10-13T02:07:18;97878.34;;;13.23;100.00
22755;BME280;11544;42.020;23.094;2022-10-13T02:09:56;97880.13;;;12.97;100.00
22755;BME280;11544;42.020;23.094;2022-10-13T02:12:31;97880.38;;;12.89;100.00
22755;BME280;11544;42.020;23.094;2022-10-13T02:14:59;97877.22;;;13.05;100.00
22755;BME280;11544;42.020;23.094;2022-10-13T02:17:27;97871.59;;;13.16;100.00
22755;BME280;11544;42.020;23.094;2022-10-13T02:19:54;97860.88;;;13.23;100.00
22755;BME280;11544;42.020;23.094;2022-10-13T02:22:24;97857.31;;;13.26;100.00
22755;BME280;11544;42.020;23.094;2022-10-13T02:24:54;97860.03;;;12.98;100.00
22755;BME280;11544;42.020;23.094;2022-10-13T02:27:21;97860.56;;;12.82;100.00
22755;BME280;11544;42.020;23.094;2022-10-13T02:29:52;97864.78;;;12.86;100.00
22755;BME280;11544;42.020;23.094;2022-10-13T02:32:19;97867.97;;;12.69;100.00
22755;BME280;11544;42.020;23.094;2022-10-13T02:34:45;97871.16;;;12.53;100.00
22755;BME280;11544;42.020;23.094;2022-10-13T02:37:11;97870.34;;;12.50;100.00
22755;BME280;11544;42.020;23.094;2022-10-13T02:39:37;97877.25;;;12.52;100.00
22755;BME280;11544;42.020;23.094;2022-10-13T02:42:03;97863.44;;;12.48;100.00
22755;BME280;11544;42.020;23.094;2022-10-13T02:44:29;97868.94;;;12.67;100.00
22755;BME280;11544;42.020;23.094;2022-10-13T02:46:54;97869.69;;;12.44;100.00
22755;BME280;11544;42.020;23.094;2022-10-13T02:49:20;97874.75;;;12.48;100.00
22755;BME280;11544;42.020;23.094;2022-10-13T02:51:46;97872.66;;;12.60;100.00
22755;BME280;11544;42.020;23.094;2022-10-13T02:54:11;97875.78;;;12.71;100.00
22755;BME280;11544;42.020;23.094;2022-10-13T02:56:37;97876.63;;;12.71;100.00
22755;BME280;11544;42.020;23.094;2022-10-13T02:59:03;97879.59;;;12.61;100.00
22755;BME280;11544;42.020;23.094;2022-10-13T03:01:29;97888.19;;;12.64;100.00
22755;BME280;11544;42.020;23.094;2022-10-13T03:03:54;97889.75;;;12.70;100.00
22755;BME280;11544;42.020;23.094;2022-10-13T03:06:20;97883.56;;;12.73;100.00
22755;BME280;11544;42.020;23.094;2022-10-13T03:08:46;97878.66;;;12.88;100.00
22755;BME280;11544;42.020;23.094;2022-10-13T03:11:12;97883.56;;;12.73;100.00
22755;BME280;11544;42.020;23.094;2022-10-13T03:13:37;97885.47;;;12.67;100.00
22755;BME280;11544;42.020;23.094;2022-10-13T03:16:05;97880.84;;;12.76;100.00
22755;BME280;11544;42.020;23.094;2022-10-13T03:18:31;97883.13;;;12.60;100.00
22755;BME280;11544;42.020;23.094;2022-10-13T03:21:02;97882.75;;;12.44;100.00
22755;BME280;11544;42.020;23.094;2022-10-13T03:23:28;97882.00;;;12.67;100.00
22755;BME280;11544;42.020;23.094;2022-10-13T03:25:55;97880.59;;;12.83;100.00
22755;BME280;11544;42.020;23.094;2022-10-13T03:28:21;97882.75;;;12.70;100.00
22755;BME280;11544;42.020;23.094;2022-10-13T03:30:50;97888.31;;;12.86;100.00
22755;BME280;11544;42.020;23.094;2022-10-13T03:33:15;97882.28;;;12.84;100.00
22755;BME280;11544;42.020;23.094;2022-10-13T03:35:41;97887.66;;;12.80;100.00
22755;BME280;11544;42.020;23.094;2022-10-13T03:38:07;97891.47;;;12.96;100.00
22755;BME280;11544;42.020;23.094;2022-10-13T03:40:35;97883.06;;;12.88;100.00
22755;BME280;11544;42.020;23.094;2022-10-13T03:43:00;97884.06;;;12.84;100.00
22755;BME280;11544;42.020;23.094;2022-10-13T03:45:27;97895.28;;;12.61;100.00
22755;BME280;11544;42.020;23.094;2022-10-13T03:47:52;97891.13;;;12.55;100.00
22755;BME280;11544;42.020;23.094;2022-10-13T03:50:18;97887.94;;;12.72;100.00
22755;BME280;11544;42.020;23.094;2022-10-13T03:52:44;97889.47;;;12.53;100.00
22755;BME280;11544;42.020;23.094;2022-10-13T03:55:09;97894.94;;;12.45;100.00
22755;BME280;11544;42.020;23.094;2022-10-13T03:57:35;97901.03;;;12.45;100.00
22755;BME280;11544;42.020;23.094;2022-10-13T04:00:01;97890.13;;;12.59;100.00
22755;BME280;11544;42.020;23.094;2022-10-13T04:02:38;97894.94;;;12.71;100.00
22755;BME280;11544;42.020;23.094;2022-10-13T04:05:04;97879.09;;;12.76;100.00
22755;BME280;11544;42.020;23.094;2022-10-13T04:07:29;97880.47;;;12.86;100.00
22755;BME280;11544;42.020;23.094;2022-10-13T04:09:55;97881.47;;;12.82;100.00
22755;BME280;11544;42.020;23.094;2022-10-13T04:12:21;97890.78;;;12.91;100.00
22755;BME280;11544;42.020;23.094;2022-10-13T04:14:46;97883.16;;;12.58;100.00
22755;BME280;11544;42.020;23.094;2022-10-13T04:17:13;97887.66;;;12.55;100.00
22755;BME280;11544;42.020;23.094;2022-10-13T04:19:38;97888.59;;;12.52;100.00
22755;BME280;11544;42.020;23.094;2022-10-13T04:22:04;97900.94;;;12.47;100.00
22755;BME280;11544;42.020;23.094;2022-10-13T04:24:30;97908.91;;;12.44;100.00
22755;BME280;11544;42.020;23.094;2022-10-13T04:26:55;97891.84;;;12.59;100.00
22755;BME280;11544;42.020;23.094;2022-10-13T04:29:21;97893.75;;;12.54;100.00
22755;BME280;11544;42.020;23.094;2022-10-13T04:31:50;97889.38;;;12.54;100.00
22755;BME280;11544;42.020;23.094;2022-10-13T04:34:15;97894.00;;;12.73;100.00
22755;BME280;11544;42.020;23.094;2022-10-13T04:36:41;97895.41;;;12.56;100.00
22755;BME280;11544;42.020;23.094;2022-10-13T04:39:07;97904.50;;;12.44;100.00
22755;BME280;11544;42.020;23.094;2022-10-13T04:41:33;97910.03;;;12.35;100.00
22755;BME280;11544;42.020;23.094;2022-10-13T04:43:59;97906.94;;;12.50;100.00
22755;BME280;11544;42.020;23.094;2022-10-13T04:46:27;97901.34;;;12.61;100.00
22755;BME280;11544;42.020;23.094;2022-10-13T04:48:54;97897.00;;;12.62;100.00
22755;BME280;11544;42.020;23.094;2022-10-13T04:51:25;97899.22;;;12.47;100.00
22755;BME280;11544;42.020;23.094;2022-10-13T04:53:58;97893.09;;;12.47;100.00
22755;BME280;11544;42.020;23.094;2022-10-13T04:56:26;97891.56;;;12.68;100.00
22755;BME280;11544;42.020;23.094;2022-10-13T04:58:52;97891.41;;;13.49;100.00
22755;BME280;11544;42.020;23.094;2022-10-13T05:01:20;97888.81;;;13.95;100.00
22755;BME280;11544;42.020;23.094;2022-10-13T05:03:46;97882.31;;;14.49;100.00
22755;BME280;11544;42.020;23.094;2022-10-13T05:06:18;97867.66;;;13.77;100.00
22755;BME280;11544;42.020;23.094;2022-10-13T05:08:47;97878.91;;;14.03;100.00
22755;BME280;11544;42.020;23.094;2022-10-13T05:11:14;97878.13;;;14.23;100.00
22755;BME280;11544;42.020;23.094;2022-10-13T05:13:41;97867.28;;;14.10;100.00
22755;BME280;11544;42.020;23.094;2022-10-13T05:16:09;97874.25;;;13.64;100.00
22755;BME280;11544;42.020;23.094;2022-10-13T05:18:36;97870.94;;;12.85;100.00
22755;BME280;11544;42.020;23.094;2022-10-13T05:21:13;97883.47;;;13.74;100.00
22755;BME280;11544;42.020;23.094;2022-10-13T05:23:40;97883.13;;;13.60;100.00
22755;BME280;11544;42.020;23.094;2022-10-13T05:26:09;97888.16;;;12.91;100.00
22755;BME280;11544;42.020;23.094;2022-10-13T05:28:35;97894.66;;;14.25;100.00
22755;BME280;11544;42.020;23.094;2022-10-13T05:31:14;97889.19;;;14.08;100.00
22755;BME280;11544;42.020;23.094;2022-10-13T05:33:41;97895.72;;;14.65;100.00
22755;BME280;11544;42.020;23.094;2022-10-13T05:36:10;97885.13;;;14.45;100.00
22755;BME280;11544;42.020;23.094;2022-10-13T05:38:36;97890.63;;;14.16;100.00
22755;BME280;11544;42.020;23.094;2022-10-13T05:41:06;97885.53;;;13.66;100.00
22755;BME280;11544;42.020;23.094;2022-10-13T05:43:32;97887.06;;;13.23;100.00
22755;BME280;11544;42.020;23.094;2022-10-13T05:45:59;97898.69;;;13.65;100.00
22755;BME280;11544;42.020;23.094;2022-10-13T05:48:27;97907.97;;;13.97;100.00
22755;BME280;11544;42.020;23.094;2022-10-13T05:50:54;97911.13;;;14.51;100.00
22755;BME280;11544;42.020;23.094;2022-10-13T05:53:23;97906.28;;;14.18;100.00
22755;BME280;11544;42.020;23.094;2022-10-13T05:55:50;97907.63;;;14.06;100.00
22755;BME280;11544;42.020;23.094;2022-10-13T05:58:17;97908.16;;;14.14;100.00
22755;BME280;11544;42.020;23.094;2022-10-13T06:00:43;97905.19;;;14.02;100.00
22755;BME280;11544;42.020;23.094;2022-10-13T06:03:14;97912.25;;;14.00;100.00
22755;BME280;11544;42.020;23.094;2022-10-13T06:05:43;97908.97;;;14.16;100.00
22755;BME280;11544;42.020;23.094;2022-10-13T06:08:13;97911.75;;;13.66;100.00
22755;BME280;11544;42.020;23.094;2022-10-13T06:10:40;97914.78;;;14.47;100.00
22755;BME280;11544;42.020;23.094;2022-10-13T06:13:06;97907.91;;;14.66;100.00
22755;BME280;11544;42.020;23.094;2022-10-13T06:15:32;97904.75;;;15.00;100.00
22755;BME280;11544;42.020;23.094;2022-10-13T06:17:57;97907.28;;;14.59;100.00
22755;BME280;11544;42.020;23.094;2022-10-13T06:20:25;97912.56;;;13.43;100.00
22755;BME280;11544;42.020;23.094;2022-10-13T06:22:55;97917.69;;;14.17;100.00
22755;BME280;11544;42.020;23.094;2022-10-13T06:25:21;97918.59;;;14.16;100.00
22755;BME280;11544;42.020;23.094;2022-10-13T06:27:46;97915.47;;;13.36;100.00
22755;BME280;11544;42.020;23.094;2022-10-13T06:30:12;97927.34;;;13.69;100.00
22755;BME280;11544;42.020;23.094;2022-10-13T06:32:38;97919.19;;;13.77;100.00
22755;BME280;11544;42.020;23.094;2022-10-13T06:35:04;97916.31;;;13.85;100.00
22755;BME280;11544;42.020;23.094;2022-10-13T06:37:30;97915.84;;;13.97;100.00
22755;BME280;11544;42.020;23.094;2022-10-13T06:39:56;97922.44;;;13.60;100.00
22755;BME280;11544;42.020;23.094;2022-10-13T06:42:22;97914.84;;;13.27;100.00
22755;BME280;11544;42.020;23.094;2022-10-13T06:45:06;97919.81;;;13.60;100.00
22755;BME280;11544;42.020;23.094;2022-10-13T06:47:32;97914.81;;;14.01;100.00
22755;BME280;11544;42.020;23.094;2022-10-13T06:49:58;97907.06;;;13.74;100.00
22755;BME280;11544;42.020;23.094;2022-10-13T06:52:24;97902.53;;;13.80;100.00
22755;BME280;11544;42.020;23.094;2022-10-13T06:54:49;97902.56;;;14.02;100.00
22755;BME280;11544;42.020;23.094;2022-10-13T06:57:15;97908.44;;;13.61;100.00
22755;BME280;11544;42.020;23.094;2022-10-13T06:59:40;97906.69;;;13.37;100.00
22755;BME280;11544;42.020;23.094;2022-10-13T07:02:08;97902.22;;;13.87;100.00
22755;BME280;11544;42.020;23.094;2022-10-13T07:04:33;97905.19;;;13.29;100.00
22755;BME280;11544;42.020;23.094;2022-10-13T07:06:59;97913.72;;;13.60;100.00
22755;BME280;11544;42.020;23.094;2022-10-13T07:09:24;97912.78;;;14.08;100.00
22755;BME280;11544;42.020;23.094;2022-10-13T07:11:50;97915.41;;;14.08;100.00
22755;BME280;11544;42.020;23.094;2022-10-13T07:14:16;97913.16;;;13.98;100.00
22755;BME280;11544;42.020;23.094;2022-10-13T07:16:42;97909.59;;;14.45;100.00
22755;BME280;11544;42.020;23.094;2022-10-13T07:19:08;97901.72;;;14.23;100.00
22755;BME280;11544;42.020;23.094;2022-10-13T07:21:36;97894.06;;;13.95;100.00
22755;BME280;11544;42.020;23.094;2022-10-13T07:24:01;97899.31;;;13.71;100.00
22755;BME280;11544;42.020;23.094;2022-10-13T07:26:28;97907.16;;;13.95;100.00
22755;BME280;11544;42.020;23.094;2022-10-13T07:28:54;97899.53;;;13.65;100.00
22755;BME280;11544;42.020;23.094;2022-10-13T07:31:20;97901.91;;;13.48;100.00
22755;BME280;11544;42.020;23.094;2022-10-13T07:33:47;97904.88;;;13.13;100.00
22755;BME280;11544;42.020;23.094;2022-10-13T07:36:15;97901.31;;;13.14;100.00
22755;BME280;11544;42.020;23.094;2022-10-13T07:38:41;97908.41;;;13.38;100.00
22755;BME280;11544;42.020;23.094;2022-10-13T07:41:09;97912.03;;;13.82;100.00
22755;BME280;11544;42.020;23.094;2022-10-13T07:43:34;97906.06;;;13.53;100.00
22755;BME280;11544;42.020;23.094;2022-10-13T07:46:04;97917.81;;;13.90;100.00
22755;BME280;11544;42.020;23.094;2022-10-13T07:48:30;97897.28;;;14.25;100.00
22755;BME280;11544;42.020;23.094;2022-10-13T07:51:09;97904.97;;;13.61;100.00
22755;BME280;11544;42.020;23.094;2022-10-13T07:53:35;97903.81;;;14.15;100.00
22755;BME280;11544;42.020;23.094;2022-10-13T07:56:01;97910.00;;;14.12;100.00
22755;BME280;11544;42.020;23.094;2022-10-13T07:58:28;97908.22;;;14.36;100.00
22755;BME280;11544;42.020;23.094;2022-10-13T08:00:58;97910.38;;;14.03;100.00
22755;BME280;11544;42.020;23.094;2022-10-13T08:03:25;97906.78;;;13.82;100.00
22755;BME280;11544;42.020;23.094;2022-10-13T08:05:51;97902.34;;;13.84;100.00
22755;BME280;11544;42.020;23.094;2022-10-13T08:08:16;97910.25;;;13.59;100.00
22755;BME280;11544;42.020;23.094;2022-10-13T08:10:42;97907.50;;;13.62;100.00
22755;BME280;11544;42.020;23.094;2022-10-13T08:13:09;97910.41;;;14.02;100.00
22755;BME280;11544;42.020;23.094;2022-10-13T08:15:39;97904.69;;;13.68;100.00
22755;BME280;11544;42.020;23.094;2022-10-13T08:18:05;97906.16;;;13.75;100.00
22755;BME280;11544;42.020;23.094;2022-10-13T08:20:30;97907.34;;;13.90;100.00
22755;BME280;11544;42.020;23.094;2022-10-13T08:22:56;97906.38;;;13.93;100.00
22755;BME280;11544;42.020;23.094;2022-10-13T08:25:22;97904.16;;;14.50;100.00
22755;BME280;11544;42.020;23.094;2022-10-13T08:27:47;97893.94;;;14.44;100.00
22755;BME280;11544;42.020;23.094;2022-10-13T08:30:13;97893.81;;;14.25;100.00
22755;BME280;11544;42.020;23.094;2022-10-13T08:32:38;97883.78;;;14.78;100.00
22755;BME280;11544;42.020;23.094;2022-10-13T08:35:05;97884.34;;;14.43;100.00
22755;BME280;11544;42.020;23.094;2022-10-13T08:37:31;97884.25;;;14.88;100.00
22755;BME280;11544;42.020;23.094;2022-10-13T08:39:56;97869.66;;;14.60;100.00
22755;BME280;11544;42.020;23.094;2022-10-13T08:42:22;97876.97;;;14.74;100.00
22755;BME280;11544;42.020;23.094;2022-10-13T08:45:07;97862.59;;;15.03;100.00
22755;BME280;11544;42.020;23.094;2022-10-13T08:47:40;97860.03;;;15.02;100.00
22755;BME280;11544;42.020;23.094;2022-10-13T08:50:24;97859.31;;;14.98;100.00
22755;BME280;11544;42.020;23.094;2022-10-13T08:53:08;97850.31;;;15.04;100.00
22755;BME280;11544;42.020;23.094;2022-10-13T08:55:48;97854.19;;;14.75;100.00
22755;BME280;11544;42.020;23.094;2022-10-13T08:58:25;97860.03;;;14.81;100.00
22755;BME280;11544;42.020;23.094;2022-10-13T09:06:24;97853.38;;;15.34;100.00
22755;BME280;11544;42.020;23.094;2022-10-13T09:08:56;97846.53;;;15.30;100.00
22755;BME280;11544;42.020;23.094;2022-10-13T09:11:30;97840.31;;;15.72;98.77
22755;BME280;11544;42.020;23.094;2022-10-13T09:13:59;97841.34;;;15.68;97.57
22755;BME280;11544;42.020;23.094;2022-10-13T09:16:33;97828.28;;;15.48;97.42
22755;BME280;11544;42.020;23.094;2022-10-13T09:19:28;97827.78;;;15.58;97.68
22755;BME280;11544;42.020;23.094;2022-10-13T09:21:56;97832.03;;;15.61;99.15
22755;BME280;11544;42.020;23.094;2022-10-13T09:24:24;97835.00;;;15.93;98.16
22755;BME280;11544;42.020;23.094;2022-10-13T09:27:10;97842.56;;;15.99;97.51
22755;BME280;11544;42.020;23.094;2022-10-13T09:29:38;97837.41;;;15.97;97.87
22755;BME280;11544;42.020;23.094;2022-10-13T09:32:18;97842.47;;;15.62;98.84
22755;BME280;11544;42.020;23.094;2022-10-13T09:34:45;97840.78;;;15.61;97.00
22755;BME280;11544;42.020;23.094;2022-10-13T09:37:19;97834.78;;;15.97;97.64
22755;BME280;11544;42.020;23.094;2022-10-13T09:39:45;97839.66;;;16.05;97.90
22755;BME280;11544;42.020;23.094;2022-10-13T09:42:21;97826.94;;;16.32;96.05
22755;BME280;11544;42.020;23.094;2022-10-13T09:44:57;97830.50;;;15.95;97.26
22755;BME280;11544;42.020;23.094;2022-10-13T09:47:28;97816.41;;;16.32;95.84
22755;BME280;11544;42.020;23.094;2022-10-13T09:50:13;97819.59;;;16.39;94.93
22755;BME280;11544;42.020;23.094;2022-10-13T09:52:41;97808.00;;;16.25;95.16
22755;BME280;11544;42.020;23.094;2022-10-13T09:55:30;97807.00;;;16.28;95.18
22755;BME280;11544;42.020;23.094;2022-10-13T09:58:19;97810.75;;;16.22;95.05
22755;BME280;11544;42.020;23.094;2022-10-13T10:00:48;97798.13;;;16.65;93.97
22755;BME280;11544;42.020;23.094;2022-10-13T10:03:26;97792.31;;;16.59;91.24
22755;BME280;11544;42.020;23.094;2022-10-13T10:06:00;97786.47;;;16.17;89.44
22755;BME280;11544;42.020;23.094;2022-10-13T10:11:20;97783.81;;;16.54;91.72
22755;BME280;11544;42.020;23.094;2022-10-13T10:13:48;97777.50;;;16.91;89.93
22755;BME280;11544;42.020;23.094;2022-10-13T10:16:34;97780.19;;;17.07;88.63
22755;BME280;11544;42.020;23.094;2022-10-13T10:19:20;97781.09;;;16.90;88.39
22755;BME280;11544;42.020;23.094;2022-10-13T10:22:11;97769.25;;;16.46;88.18
22755;BME280;11544;42.020;23.094;2022-10-13T10:25:02;97766.31;;;15.99;89.42
22755;BME280;11544;42.020;23.094;2022-10-13T10:27:38;97763.09;;;16.11;92.33
22755;BME280;11544;42.020;23.094;2022-10-13T10:30:14;97763.91;;;16.30;92.80
22755;BME280;11544;42.020;23.094;2022-10-13T10:35:55;97761.09;;;16.16;91.50
22755;BME280;11544;42.020;23.094;2022-10-13T10:38:43;97757.16;;;16.25;92.52
22755;BME280;11544;42.020;23.094;2022-10-13T10:41:25;97744.16;;;16.22;88.48
22755;BME280;11544;42.020;23.094;2022-10-13T10:44:09;97742.13;;;16.09;90.01
22755;BME280;11544;42.020;23.094;2022-10-13T10:46:48;97736.81;;;16.11;90.47
22755;BME280;11544;42.020;23.094;2022-10-13T10:49:30;97735.16;;;16.08;90.37
22755;BME280;11544;42.020;23.094;2022-10-13T10:51:57;97734.47;;;16.05;91.41
22755;BME280;11544;42.020;23.094;2022-10-13T10:57:15;97720.09;;;16.47;88.78
22755;BME280;11544;42.020;23.094;2022-10-13T11:00:15;97714.28;;;16.40;88.51
22755;BME280;11544;42.020;23.094;2022-10-13T11:03:01;97705.91;;;16.67;88.07
22755;BME280;11544;42.020;23.094;2022-10-13T11:08:40;97700.81;;;16.64;85.71
22755;BME280;11544;42.020;23.094;2022-10-13T11:11:41;97694.03;;;16.42;85.67
22755;BME280;11544;42.020;23.094;2022-10-13T11:14:23;97688.75;;;16.42;84.71
22755;BME280;11544;42.020;23.094;2022-10-13T11:17:34;97690.38;;;16.80;85.98
22755;BME280;11544;42.020;23.094;2022-10-13T11:25:41;97680.22;;;16.55;86.82
22755;BME280;11544;42.020;23.094;2022-10-13T11:31:46;97663.63;;;16.87;82.50
22755;BME280;11544;42.020;23.094;2022-10-13T11:41:53;97664.66;;;17.17;81.99
22755;BME280;11544;42.020;23.094;2022-10-13T11:44:31;97660.75;;;16.92;83.19
22755;BME280;11544;42.020;23.094;2022-10-13T11:58:28;97637.41;;;17.18;79.38
22755;BME280;11544;42.020;23.094;2022-10-13T12:03:25;97629.06;;;17.09;79.32
22755;BME280;11544;42.020;23.094;2022-10-13T12:05:53;97629.22;;;16.90;78.20
22755;BME280;11544;42.020;23.094;2022-10-13T12:08:20;97622.78;;;16.96;76.50
22755;BME280;11544;42.020;23.094;2022-10-13T12:10:51;97618.63;;;17.08;76.03
22755;BME280;11544;42.020;23.094;2022-10-13T12:13:23;97618.34;;;17.28;75.05
22755;BME280;11544;42.020;23.094;2022-10-13T12:15:59;97609.00;;;17.23;74.08
22755;BME280;11544;42.020;23.094;2022-10-13T12:18:31;97617.41;;;17.13;74.32
22755;BME280;11544;42.020;23.094;2022-10-13T12:21:21;97605.16;;;17.60;73.25
22755;BME280;11544;42.020;23.094;2022-10-13T12:23:49;97601.38;;;17.34;71.79
22755;BME280;11544;42.020;23.094;2022-10-13T12:26:17;97594.88;;;17.24;71.62
22755;BME280;11544;42.020;23.094;2022-10-13T12:28:54;97595.88;;;16.73;73.37
22755;BME280;11544;42.020;23.094;2022-10-13T12:31:29;97585.03;;;17.27;73.50
22755;BME280;11544;42.020;23.094;2022-10-13T12:34:02;97597.78;;;17.35;74.42
22755;BME280;11544;42.020;23.094;2022-10-13T12:36:33;97595.78;;;17.54;73.72
22755;BME280;11544;42.020;23.094;2022-10-13T12:39:05;97591.25;;;17.72;72.61
22755;BME280;11544;42.020;23.094;2022-10-13T12:41:35;97592.00;;;17.74;72.88
22755;BME280;11544;42.020;23.094;2022-10-13T12:44:04;97583.53;;;17.69;73.06
22755;BME280;11544;42.020;23.094;2022-10-13T12:49:22;97581.41;;;17.90;70.50
22755;BME280;11544;42.020;23.094;2022-10-13T12:52:12;97585.75;;;17.61;72.57
22755;BME280;11544;42.020;23.094;2022-10-13T12:54:49;97581.41;;;17.90;71.60
22755;BME280;11544;42.020;23.094;2022-10-13T12:57:21;97589.81;;;17.97;71.69
22755;BME280;11544;42.020;23.094;2022-10-13T12:59:51;97585.72;;;17.77;74.18
22755;BME280;11544;42.020;23.094;2022-10-13T13:02:25;97585.53;;;17.80;75.25
22755;BME280;11544;42.020;23.094;2022-10-13T13:04:52;97591.09;;;17.60;74.66
22755;BME280;11544;42.020;23.094;2022-10-13T13:10:15;97594.75;;;17.27;76.40
22755;BME280;11544;42.020;23.094;2022-10-13T13:12:42;97588.25;;;17.32;76.74
22755;BME280;11544;42.020;23.094;2022-10-13T13:17:49;97581.78;;;17.38;77.67
22755;BME280;11544;42.020;23.094;2022-10-13T13:20:23;97571.41;;;17.51;75.84
22755;BME280;11544;42.020;23.094;2022-10-13T13:22:49;97579.16;;;17.68;74.45
22755;BME280;11544;42.020;23.094;2022-10-13T13:25:15;97580.59;;;17.44;74.04
22755;BME280;11544;42.020;23.094;2022-10-13T13:27:41;97581.63;;;17.71;74.18
22755;BME280;11544;42.020;23.094;2022-10-13T13:30:11;97573.66;;;17.57;73.19
22755;BME280;11544;42.020;23.094;2022-10-13T13:32:37;97578.16;;;17.71;75.47
22755;BME280;11544;42.020;23.094;2022-10-13T13:35:04;97581.97;;;17.35;76.10
22755;BME280;11544;42.020;23.094;2022-10-13T13:37:45;97572.78;;;17.42;77.15
22755;BME280;11544;42.020;23.094;2022-10-13T13:40:19;97575.84;;;17.34;76.27
22755;BME280;11544;42.020;23.094;2022-10-13T13:42:45;97572.84;;;17.41;76.30
22755;BME280;11544;42.020;23.094;2022-10-13T13:45:15;97568.34;;;17.43;77.00
22755;BME280;11544;42.020;23.094;2022-10-13T13:47:42;97574.69;;;17.54;76.39
22755;BME280;11544;42.020;23.094;2022-10-13T13:50:32;97566.28;;;17.48;75.31
22755;BME280;11544;42.020;23.094;2022-10-13T13:52:58;97559.50;;;17.74;74.31
22755;BME280;11544;42.020;23.094;2022-10-13T13:55:25;97556.34;;;17.07;76.29
22755;BME280;11544;42.020;23.094;2022-10-13T13:57:51;97550.38;;;17.19;76.60
22755;BME280;11544;42.020;23.094;2022-10-13T14:00:17;97551.44;;;17.31;77.50
22755;BME280;11544;42.020;23.094;2022-10-13T14:02:47;97556.25;;;17.08;79.05
22755;BME280;11544;42.020;23.094;2022-10-13T14:05:13;97543.66;;;17.13;78.92
22755;BME280;11544;42.020;23.094;2022-10-13T14:07:39;97551.56;;;16.98;78.28
22755;BME280;11544;42.020;23.094;2022-10-13T14:10:07;97547.16;;;16.98;79.55
22755;BME280;11544;42.020;23.094;2022-10-13T14:12:33;97544.19;;;17.20;79.04
22755;BME280;11544;42.020;23.094;2022-10-13T14:14:59;97539.41;;;17.27;79.09